createdAt,value
2022-10-11T00:05:15.300Z,3.72
2022-10-11T00:15:21.265Z,1.95
2022-10-11T00:25:23.558Z,3.15
2022-10-11T00:35:26.552Z,3.78
2022-10-11T00:45:32.109Z,3.40
2022-10-11T00:55:40.854Z,2.37
2022-10-11T01:05:44.176Z,2.42
2022-10-11T01:15:56.998Z,3.35
2022-10-11T01:26:13.841Z,2.50
2022-10-11T01:36:28.107Z,2.62
2022-10-11T01:46:31.504Z,2.05
2022-10-11T01:57:06.383Z,3.75
2022-10-11T02:07:22.115Z,4.00
2022-10-11T02:17:31.462Z,2.83
2022-10-11T02:27:37.691Z,2.95
2022-10-11T02:37:51.923Z,1.87
2022-10-11T02:47:54.789Z,2.17
2022-10-11T02:57:57.361Z,3.05
2022-10-11T03:07:59.732Z,2.58
2022-10-11T03:18:02.105Z,6.10
2022-10-11T03:28:05.162Z,4.43
2022-10-11T03:38:12.265Z,2.40
2022-10-11T03:48:15.322Z,4.62
2022-10-11T03:58:17.654Z,3.03
2022-10-11T04:08:20.046Z,3.17
2022-10-11T04:18:22.497Z,5.93
2022-10-11T04:28:25.400Z,3.15
2022-10-11T04:38:27.875Z,4.45
2022-10-11T04:48:30.507Z,5.15
2022-10-11T04:58:35.426Z,4.68
2022-10-11T05:08:39.370Z,2.60
2022-10-11T05:18:41.994Z,2.63
2022-10-11T05:28:44.728Z,2.62
2022-10-11T05:38:47.966Z,2.15
2022-10-11T05:48:50.533Z,2.87
2022-10-11T05:58:53.966Z,3.50
2022-10-11T06:08:58.499Z,4.37
2022-10-11T06:19:01.323Z,2.97
2022-10-11T06:29:04.983Z,3.25
2022-10-11T06:39:08.066Z,3.43
2022-10-11T06:49:11.560Z,3.05
2022-10-11T06:59:15.344Z,4.17
2022-10-11T07:09:17.981Z,3.45
2022-10-11T07:19:20.982Z,4.35
2022-10-11T07:29:23.688Z,4.75
2022-10-11T07:39:27.503Z,4.18
2022-10-11T07:49:30.377Z,12.23
2022-10-11T07:59:34.073Z,5.45
2022-10-11T08:09:36.800Z,13.07
2022-10-11T08:19:39.523Z,9.05
2022-10-11T08:29:42.391Z,10.10
2022-10-11T08:39:45.315Z,13.85
2022-10-11T08:49:48.821Z,9.45
2022-10-11T09:00:07.131Z,10.50
2022-10-11T09:10:41.196Z,10.88
2022-10-11T09:21:05.531Z,7.45
2022-10-11T09:31:11.224Z,5.97
2022-10-11T09:41:43.929Z,14.68
2022-10-11T09:51:59.566Z,14.68
2022-10-11T10:02:14.928Z,11.27
2022-10-11T10:12:28.574Z,9.90
2022-10-11T10:22:38.855Z,10.13
2022-10-11T10:33:05.119Z,9.57
2022-10-11T10:43:16.269Z,15.18
2022-10-11T10:53:36.590Z,10.05
2022-10-11T11:03:59.901Z,11.20
2022-10-11T11:14:47.644Z,11.18
2022-10-11T11:35:34.083Z,10.07
2022-10-11T11:46:02.636Z,16.67
2022-10-11T11:56:14.599Z,17.40
2022-10-11T12:06:21.573Z,14.13
2022-10-11T12:16:29.298Z,19.42
2022-10-11T12:26:40.172Z,15.52
2022-10-11T12:36:48.683Z,17.30
2022-10-11T12:46:56.609Z,19.15
2022-10-11T12:57:26.940Z,19.92
2022-10-11T13:07:30.054Z,17.23
2022-10-11T13:17:38.699Z,17.40
2022-10-11T13:27:42.590Z,20.15
2022-10-11T13:37:48.112Z,18.87
2022-10-11T13:47:53.828Z,17.80
2022-10-11T13:58:01.765Z,15.48
2022-10-11T14:08:40.731Z,15.20
2022-10-11T14:18:46.289Z,15.82
2022-10-11T14:28:57.992Z,15.73
2022-10-11T14:39:01.879Z,17.80
2022-10-11T14:49:14.857Z,13.15
2022-10-11T14:59:21.603Z,12.90
2022-10-11T15:09:24.995Z,11.45
2022-10-11T15:19:28.233Z,11.23
2022-10-11T15:29:31.033Z,11.57
2022-10-11T15:39:34.314Z,9.32
2022-10-11T15:49:37.254Z,10.73
2022-10-11T15:59:39.930Z,10.05
2022-10-11T16:09:42.702Z,9.38
2022-10-11T16:19:45.511Z,12.97
2022-10-11T16:29:48.002Z,10.25
2022-10-11T16:39:50.636Z,10.13
2022-10-11T16:49:53.491Z,7.30
2022-10-11T16:59:56.351Z,7.78
2022-10-11T17:10:01.312Z,8.00
2022-10-11T17:20:04.529Z,8.80
2022-10-11T17:30:07.861Z,7.43
2022-10-11T17:40:10.802Z,5.43
2022-10-11T17:50:13.404Z,10.40
2022-10-11T18:00:16.586Z,6.12
2022-10-11T18:10:19.207Z,9.47
2022-10-11T18:20:21.955Z,7.03
2022-10-11T18:30:24.783Z,10.18
2022-10-11T18:40:27.333Z,6.45
2022-10-11T18:50:35.193Z,8.45
2022-10-11T19:00:41.608Z,10.20
2022-10-11T19:10:45.205Z,8.70
2022-10-11T19:20:48.622Z,8.17
2022-10-11T19:30:51.170Z,8.50
2022-10-11T19:40:54.393Z,10.25
2022-10-11T19:51:18.307Z,7.85
2022-10-11T20:01:23.177Z,9.40
2022-10-11T20:11:26.948Z,8.13
2022-10-11T20:21:30.968Z,8.10
2022-10-11T20:31:35.520Z,7.00
2022-10-11T20:41:40.390Z,7.72
2022-10-11T20:51:43.111Z,7.82
2022-10-11T21:01:45.656Z,9.63
2022-10-11T21:11:48.274Z,9.10
2022-10-11T21:21:53.702Z,11.20
2022-10-11T21:31:56.403Z,8.95
2022-10-11T21:41:58.674Z,9.18
2022-10-11T21:52:01.576Z,11.15
2022-10-11T22:02:03.970Z,10.35
2022-10-11T22:12:06.997Z,9.80
2022-10-11T22:22:09.371Z,10.98
2022-10-11T22:32:11.800Z,11.30
2022-10-11T22:42:14.818Z,12.30
2022-10-11T22:52:17.092Z,11.73
2022-10-11T23:02:19.409Z,8.23
2022-10-11T23:12:21.697Z,10.52
2022-10-11T23:22:24.538Z,12.00
2022-10-11T23:32:26.864Z,20.05
2022-10-11T23:42:29.210Z,14.02
2022-10-11T23:52:31.491Z,12.48
